Time;durP1;ratioP1;P1;durP2;ratioP2;P2;SDS_P1;SDS_P2;PMS_P1;PMS_P2;Temp;Humidity;BMP_temperature;BMP_pressure;BME280_temperature;BME280_humidity;BME280_pressure;Samples;Min_cycle;Max_cycle;Signal;HPM_P1;HPM_P2
2023/06/20 00:01:18;;;;;;;8.93;5.80;;;22.50;93.40;;;;;;5051292;28;20355;-69
2023/06/20 00:03:45;;;;;;;9.20;5.60;;;22.50;93.20;;;;;;5051232;28;20433;-69
2023/06/20 00:06:10;;;;;;;6.47;5.63;;;22.50;93.30;;;;;;5049834;28;20112;-70
2023/06/20 00:08:36;;;;;;;7.72;5.93;;;22.50;93.20;;;;;;5050783;28;20445;-70
2023/06/20 00:11:02;;;;;;;9.65;6.63;;;22.50;93.30;;;;;;5050909;28;20228;-70
2023/06/20 00:13:28;;;;;;;7.00;5.97;;;22.50;93.20;;;;;;5051105;28;20079;-70
2023/06/20 00:15:57;;;;;;;6.38;5.70;;;22.50;93.20;;;;;;5050811;28;20029;-70
2023/06/20 00:18:26;;;;;;;19.63;5.80;;;22.60;93.20;;;;;;5050839;28;20452;-70
2023/06/20 00:20:54;;;;;;;7.97;6.15;;;22.50;93.30;;;;;;5050808;28;20402;-69
2023/06/20 00:23:21;;;;;;;8.35;6.10;;;22.50;93.40;;;;;;5049566;28;20113;-69
2023/06/20 00:25:47;;;;;;;10.53;6.10;;;22.50;93.30;;;;;;5049509;28;20107;-69
2023/06/20 00:28:16;;;;;;;7.55;6.03;;;22.50;93.50;;;;;;5050019;28;20365;-70
2023/06/20 00:30:42;;;;;;;8.77;6.05;;;22.50;93.80;;;;;;5050683;28;20048;-70
2023/06/20 00:33:07;;;;;;;9.82;6.70;;;22.40;93.80;;;;;;5050377;28;20076;-69
2023/06/20 00:35:33;;;;;;;8.45;6.78;;;22.40;94.00;;;;;;5049562;28;20068;-70
2023/06/20 00:38:00;;;;;;;9.55;6.55;;;22.40;94.00;;;;;;5050486;28;20121;-68
2023/06/20 00:40:27;;;;;;;10.32;7.25;;;22.40;93.70;;;;;;5049670;28;20021;-69
2023/06/20 00:42:53;;;;;;;9.05;6.50;;;22.40;93.80;;;;;;5050402;28;20033;-69
2023/06/20 00:45:30;;;;;;;7.82;6.55;;;22.40;93.60;;;;;;5050210;28;20040;-67
2023/06/20 00:47:58;;;;;;;8.40;6.75;;;22.40;93.80;;;;;;5050187;28;20021;-70
2023/06/20 00:50:27;;;;;;;;;;;22.40;94.20;;;;;;5049801;28;20068;-69
2023/06/20 00:52:58;;;;;;;9.57;7.22;;;22.40;94.30;;;;;;5050172;28;20079;-70
2023/06/20 00:55:25;;;;;;;10.32;7.45;;;22.30;94.40;;;;;;5050684;28;20440;-69
2023/06/20 00:57:52;;;;;;;8.63;6.50;;;22.40;94.20;;;;;;5049250;28;20033;-70
2023/06/20 01:00:18;;;;;;;10.52;6.95;;;22.40;94.40;;;;;;5049454;28;20033;-69
2023/06/20 01:02:46;;;;;;;11.15;7.47;;;22.40;94.20;;;;;;5050304;28;20036;-70
2023/06/20 01:05:15;;;;;;;8.93;7.22;;;22.30;94.60;;;;;;5050227;28;20029;-69
2023/06/20 01:07:52;;;;;;;11.50;7.38;;;22.30;94.30;;;;;;5049993;28;20112;-69
2023/06/20 01:10:48;;;;;;;8.02;6.72;;;22.40;94.30;;;;;;5049314;28;20033;-70
2023/06/20 01:13:19;;;;;;;8.82;7.32;;;22.40;94.40;;;;;;5049982;28;20039;-70
2023/06/20 01:16:04;;;;;;;9.07;7.85;;;22.40;94.40;;;;;;5050130;28;20061;-69
2023/06/20 01:18:45;;;;;;;11.30;7.65;;;22.40;94.50;;;;;;5049960;28;20029;-69
2023/06/20 01:21:19;;;;;;;10.18;8.27;;;22.30;94.50;;;;;;5049828;28;20068;-70
2023/06/20 01:23:54;;;;;;;8.68;7.40;;;22.30;94.70;;;;;;5048684;28;20114;-70
2023/06/20 01:26:41;;;;;;;9.73;8.00;;;22.20;94.70;;;;;;5049915;28;20037;-70
2023/06/20 01:29:18;;;;;;;10.05;8.25;;;22.20;94.60;;;;;;5050181;28;20029;-70
2023/06/20 01:31:54;;;;;;;11.10;7.93;;;22.20;94.60;;;;;;5049715;28;20041;-69
2023/06/20 01:34:46;;;;;;;12.18;8.18;;;22.30;94.70;;;;;;5050380;28;20374;-69
2023/06/20 01:37:16;;;;;;;13.18;7.97;;;22.30;94.80;;;;;;5050269;28;20060;-69
2023/06/20 01:39:54;;;;;;;10.27;8.40;;;22.20;94.70;;;;;;5049905;28;20044;-68
2023/06/20 01:42:23;;;;;;;12.55;7.90;;;22.20;94.80;;;;;;5050046;28;20049;-68
2023/06/20 01:44:52;;;;;;;10.82;8.52;;;22.20;94.70;;;;;;5049737;28;20477;-69
2023/06/20 01:47:19;;;;;;;10.45;7.85;;;22.20;95.00;;;;;;5049827;28;20260;-70
2023/06/20 01:49:48;;;;;;;10.37;8.30;;;22.10;94.90;;;;;;5049801;28;20037;-69
2023/06/20 01:52:16;;;;;;;11.32;7.70;;;22.10;95.20;;;;;;5050292;28;20021;-68
2023/06/20 01:54:46;;;;;;;12.27;8.48;;;22.10;95.40;;;;;;5049588;28;20083;-69
2023/06/20 01:57:13;;;;;;;10.70;8.45;;;22.10;95.20;;;;;;5049645;28;20033;-69
2023/06/20 01:59:41;;;;;;;14.27;8.32;;;22.10;95.30;;;;;;5052393;28;20079;-68
2023/06/20 02:02:07;;;;;;;10.00;8.63;;;22.10;95.30;;;;;;5053708;28;20494;-70
2023/06/20 02:04:35;;;;;;;11.07;8.63;;;22.10;95.30;;;;;;5053738;28;20025;-70
2023/06/20 02:07:03;;;;;;;11.57;8.77;;;22.00;95.50;;;;;;5053571;28;20455;-70
2023/06/20 02:09:29;;;;;;;10.73;8.80;;;22.00;95.50;;;;;;5053442;28;20262;-70
2023/06/20 02:11:57;;;;;;;10.23;8.57;;;22.00;95.40;;;;;;5053267;28;20044;-69
2023/06/20 02:14:25;;;;;;;11.32;8.90;;;22.00;95.40;;;;;;5053388;28;20033;-69
2023/06/20 02:16:51;;;;;;;11.05;8.85;;;22.00;95.50;;;;;;5053354;28;20031;-69
2023/06/20 02:19:17;;;;;;;10.20;8.45;;;22.00;95.60;;;;;;5053694;28;20029;-70
2023/06/20 02:21:45;;;;;;;14.95;8.45;;;21.90;95.70;;;;;;5051904;28;20057;-70
2023/06/20 02:24:18;;;;;;;15.18;9.38;;;21.90;95.80;;;;;;5053029;28;20033;-70
2023/06/20 02:26:45;;;;;;;11.60;8.57;;;21.80;95.80;;;;;;5053475;28;20029;-69
2023/06/20 02:29:12;;;;;;;13.33;9.23;;;21.90;96.00;;;;;;5051873;28;20043;-69
2023/06/20 02:31:43;;;;;;;15.43;8.93;;;21.80;96.20;;;;;;5052959;28;20112;-70
2023/06/20 02:34:13;;;;;;;10.38;7.97;;;21.80;96.30;;;;;;5053151;28;20282;-70
2023/06/20 02:36:42;;;;;;;12.98;8.85;;;21.80;96.40;;;;;;5052766;28;20072;-70
2023/06/20 02:39:08;;;;;;;11.07;8.55;;;21.70;96.60;;;;;;5051935;28;20344;-69
2023/06/20 02:41:33;;;;;;;12.57;9.25;;;21.70;96.50;;;;;;5053385;28;20040;-67
2023/06/20 02:43:59;;;;;;;10.60;8.65;;;21.70;96.50;;;;;;5053025;28;20025;-68
2023/06/20 02:46:36;;;;;;;13.88;8.57;;;21.70;96.60;;;;;;5053072;28;20027;-69
2023/06/20 02:49:07;;;;;;;11.02;8.52;;;21.70;96.80;;;;;;5052840;28;20033;-69
2023/06/20 02:51:53;;;;;;;14.23;9.50;;;21.60;96.90;;;;;;5052432;28;20410;-70
2023/06/20 02:54:33;;;;;;;10.95;9.00;;;21.60;96.90;;;;;;5052430;28;20044;-69
2023/06/20 02:57:02;;;;;;;13.48;8.82;;;21.60;97.00;;;;;;5052513;28;20037;-70
2023/06/20 02:59:31;;;;;;;11.30;9.40;;;21.60;97.00;;;;;;5051418;28;20037;-69
2023/06/20 03:01:58;;;;;;;10.45;8.77;;;21.60;97.20;;;;;;5052682;28;20033;-70
2023/06/20 03:04:28;;;;;;;11.97;9.30;;;21.50;97.30;;;;;;5051747;28;20052;-69
2023/06/20 03:06:57;;;;;;;12.98;8.70;;;21.50;97.10;;;;;;5052298;28;20040;-69
2023/06/20 03:09:24;;;;;;;11.38;8.70;;;21.50;97.30;;;;;;5051942;28;20039;-70
2023/06/20 03:11:50;;;;;;;12.85;9.38;;;21.50;97.40;;;;;;5051629;28;20029;-68
2023/06/20 03:14:19;;;;;;;11.90;9.65;;;21.50;97.40;;;;;;5051926;28;20040;-69
2023/06/20 03:16:44;;;;;;;13.80;10.00;;;21.50;97.60;;;;;;5052148;28;20071;-69
2023/06/20 03:19:10;;;;;;;13.55;9.43;;;21.40;97.70;;;;;;5052547;28;20057;-69
2023/06/20 03:21:38;;;;;;;11.95;9.10;;;21.50;97.60;;;;;;5051979;28;20083;-69
2023/06/20 03:24:04;;;;;;;11.85;9.15;;;21.50;97.80;;;;;;5051950;28;20029;-68
2023/06/20 03:26:30;;;;;;;15.18;9.50;;;21.50;97.60;;;;;;5051924;28;20037;-68
2023/06/20 03:28:55;;;;;;;12.05;8.68;;;21.50;97.70;;;;;;5051895;28;20033;-68
2023/06/20 03:31:21;;;;;;;12.32;9.68;;;21.50;97.80;;;;;;5052502;28;20036;-70
2023/06/20 03:33:47;;;;;;;11.90;9.82;;;21.40;97.90;;;;;;5051832;28;20116;-69
2023/06/20 03:36:12;;;;;;;14.13;10.00;;;21.40;98.20;;;;;;5051676;28;20104;-70
2023/06/20 03:38:42;;;;;;;11.77;9.50;;;21.40;98.20;;;;;;5051565;28;20048;-70
2023/06/20 03:41:07;;;;;;;13.70;10.40;;;21.40;98.00;;;;;;5051764;28;20081;-68
2023/06/20 03:43:33;;;;;;;13.60;9.95;;;21.40;98.30;;;;;;5051935;28;20381;-69
2023/06/20 03:45:59;;;;;;;13.23;10.13;;;21.40;98.40;;;;;;5051657;28;20037;-69
2023/06/20 03:48:25;;;;;;;12.55;10.38;;;21.40;98.40;;;;;;5051550;28;20047;-70
2023/06/20 03:50:51;;;;;;;15.98;10.57;;;21.40;98.60;;;;;;5051524;28;20033;-70
2023/06/20 03:53:16;;;;;;;14.38;10.68;;;21.40;98.60;;;;;;5051624;28;20184;-68
2023/06/20 03:55:42;;;;;;;14.82;10.25;;;21.40;98.70;;;;;;5051979;28;20018;-69
2023/06/20 03:58:08;;;;;;;15.13;10.98;;;21.30;98.90;;;;;;5050726;28;20454;-70
2023/06/20 04:00:34;;;;;;;13.73;10.35;;;21.40;98.90;;;;;;5051345;28;20442;-70
2023/06/20 04:02:59;;;;;;;11.50;9.80;;;21.40;99.00;;;;;;5051398;28;20115;-68
2023/06/20 04:05:25;;;;;;;11.52;9.73;;;21.40;98.90;;;;;;5051423;28;20044;-67
2023/06/20 04:07:51;;;;;;;13.10;9.27;;;21.40;99.00;;;;;;5050285;28;20033;-69
2023/06/20 04:10:17;;;;;;;15.70;9.98;;;21.40;99.00;;;;;;5051549;28;20029;-68
2023/06/20 04:12:43;;;;;;;12.23;9.38;;;21.40;98.90;;;;;;5050919;28;20120;-70
2023/06/20 04:15:09;;;;;;;12.77;9.60;;;21.40;99.00;;;;;;5050894;28;20034;-70
2023/06/20 04:17:37;;;;;;;13.55;10.40;;;21.40;99.10;;;;;;5050932;28;20086;-70
2023/06/20 04:20:08;;;;;;;11.43;9.63;;;21.50;99.10;;;;;;5051105;28;20025;-70
2023/06/20 04:22:34;;;;;;;13.10;9.88;;;21.50;99.10;;;;;;5050540;28;20033;-69
2023/06/20 04:24:59;;;;;;;12.90;9.82;;;21.60;99.10;;;;;;5051048;28;20048;-70
2023/06/20 04:27:25;;;;;;;14.48;9.75;;;21.50;99.30;;;;;;5050753;28;20025;-68
2023/06/20 04:29:50;;;;;;;11.35;9.10;;;21.60;99.20;;;;;;5050781;28;20024;-71
2023/06/20 04:32:18;;;;;;;12.90;10.43;;;21.60;99.40;;;;;;5050763;28;20173;-71
2023/06/20 04:34:43;;;;;;;13.03;9.80;;;21.60;99.20;;;;;;5050920;28;20029;-68
2023/06/20 04:37:09;;;;;;;13.20;9.98;;;21.60;99.20;;;;;;5051227;28;20530;-70
2023/06/20 04:39:34;;;;;;;14.40;9.52;;;21.70;99.30;;;;;;5050660;28;20033;-69
2023/06/20 04:42:00;;;;;;;13.75;10.52;;;21.70;99.20;;;;;;5050589;28;20059;-70
2023/06/20 04:44:25;;;;;;;14.77;10.40;;;21.70;99.20;;;;;;5050420;28;20049;-70
2023/06/20 04:46:55;;;;;;;15.48;10.32;;;21.70;99.20;;;;;;5049201;28;20029;-70
2023/06/20 04:49:21;;;;;;;16.40;10.55;;;21.70;99.30;;;;;;5049967;28;20119;-70
2023/06/20 04:51:47;;;;;;;13.43;10.55;;;21.70;99.30;;;;;;5050722;28;20060;-69
2023/06/20 04:54:13;;;;;;;12.00;9.98;;;21.70;99.40;;;;;;5050285;28;20108;-70
2023/06/20 04:56:40;;;;;;;15.30;11.15;;;21.70;99.40;;;;;;5050248;28;20462;-70
2023/06/20 04:59:07;;;;;;;15.13;10.77;;;21.70;99.30;;;;;;5050230;28;20025;-71
2023/06/20 05:01:32;;;;;;;15.02;10.40;;;21.80;99.20;;;;;;5050948;28;20021;-70
2023/06/20 05:03:58;;;;;;;15.05;10.77;;;21.80;99.40;;;;;;5050262;28;20033;-70
2023/06/20 05:06:24;;;;;;;13.27;10.02;;;21.80;99.40;;;;;;5049994;28;20094;-69
2023/06/20 05:08:52;;;;;;;13.93;10.65;;;21.80;99.30;;;;;;5050140;28;20045;-69
2023/06/20 05:11:17;;;;;;;15.00;11.15;;;21.90;99.20;;;;;;5050272;28;20360;-69
2023/06/20 05:13:43;;;;;;;19.88;11.80;;;21.90;99.30;;;;;;5050321;28;20021;-69
2023/06/20 05:16:09;;;;;;;13.75;9.98;;;21.90;99.30;;;;;;5050525;28;20344;-69
2023/06/20 05:18:34;;;;;;;15.43;10.75;;;22.00;99.20;;;;;;5050041;28;20048;-68
2023/06/20 05:21:00;;;;;;;18.25;11.25;;;22.00;99.20;;;;;;5050122;28;20029;-70
2023/06/20 05:23:26;;;;;;;15.45;10.93;;;22.00;99.20;;;;;;5048826;28;20403;-70
2023/06/20 05:25:52;;;;;;;15.25;10.88;;;22.10;99.20;;;;;;5049999;28;20021;-69
2023/06/20 05:28:18;;;;;;;17.20;10.23;;;22.10;99.20;;;;;;5050389;28;20146;-70
2023/06/20 05:30:44;;;;;;;17.83;9.75;;;22.10;99.20;;;;;;5050298;28;20108;-69
2023/06/20 05:33:09;;;;;;;16.15;10.75;;;22.10;99.10;;;;;;5048716;28;20044;-68
2023/06/20 05:35:35;;;;;;;14.48;10.85;;;22.10;99.10;;;;;;5053959;28;20044;-70
2023/06/20 05:38:01;;;;;;;18.00;11.07;;;22.20;98.90;;;;;;5053817;28;20238;-68
2023/06/20 05:40:26;;;;;;;18.27;10.15;;;22.10;99.10;;;;;;5054150;28;20018;-71
2023/06/20 05:42:52;;;;;;;15.50;9.93;;;22.10;99.20;;;;;;5052721;28;20064;-69
2023/06/20 05:45:18;;;;;;;19.33;10.82;;;22.10;99.10;;;;;;5053955;28;20029;-68
2023/06/20 05:47:46;;;;;;;20.23;10.30;;;22.00;99.40;;;;;;5053782;28;20037;-68
2023/06/20 05:50:12;;;;;;;19.65;10.20;;;22.00;99.10;;;;;;5053877;28;20433;-68
2023/06/20 05:52:37;;;;;;;15.18;10.10;;;22.10;99.00;;;;;;5053767;28;20039;-68
2023/06/20 05:55:04;;;;;;;15.20;10.35;;;22.20;98.90;;;;;;5053934;28;20354;-68
2023/06/20 05:57:29;;;;;;;15.20;10.23;;;22.20;98.90;;;;;;5053748;28;20555;-68
2023/06/20 05:59:55;;;;;;;17.17;10.68;;;22.20;98.80;;;;;;5053576;28;20546;-69
2023/06/20 06:02:21;;;;;;;16.42;9.75;;;22.20;98.80;;;;;;5053612;28;20033;-69
2023/06/20 06:04:48;;;;;;;17.13;10.20;;;22.20;98.80;;;;;;5053429;28;20032;-70
2023/06/20 06:07:14;;;;;;;12.80;9.13;;;22.10;98.90;;;;;;5053717;28;20025;-69
2023/06/20 06:09:40;;;;;;;14.10;9.40;;;22.10;99.10;;;;;;5053309;28;20048;-71
2023/06/20 06:12:06;;;;;;;13.23;9.68;;;22.00;99.30;;;;;;5053228;28;20413;-70
2023/06/20 06:14:32;;;;;;;16.98;9.60;;;22.00;99.40;;;;;;5052073;28;20375;-70
2023/06/20 06:16:58;;;;;;;18.30;9.93;;;22.00;99.50;;;;;;5053925;28;20033;-69
2023/06/20 06:19:24;;;;;;;17.42;9.98;;;22.00;99.60;;;;;;5053495;28;20021;-71
2023/06/20 06:21:49;;;;;;;15.00;9.75;;;22.00;99.70;;;;;;5053322;28;20044;-71
2023/06/20 06:24:15;;;;;;;16.58;9.93;;;22.10;99.60;;;;;;5053195;28;20413;-70
2023/06/20 06:26:41;;;;;;;13.88;10.50;;;22.20;99.40;;;;;;5051728;28;20506;-71
2023/06/20 06:29:07;;;;;;;20.63;9.75;;;22.10;99.70;;;;;;5052896;28;20091;-69
2023/06/20 06:31:34;;;;;;;17.33;10.70;;;22.20;99.60;;;;;;5053148;28;20482;-70
2023/06/20 06:34:02;;;;;;;16.13;10.15;;;22.10;99.80;;;;;;5052937;28;20036;-70
2023/06/20 06:36:33;;;;;;;12.88;10.35;;;22.10;99.70;;;;;;5051837;28;20124;-70
2023/06/20 06:38:59;;;;;;;16.38;9.70;;;22.10;99.90;;;;;;5052841;28;20021;-69
2023/06/20 06:41:25;;;;;;;16.65;10.35;;;22.20;99.80;;;;;;5052855;28;20064;-71
2023/06/20 06:43:51;;;;;;;13.77;9.65;;;22.20;99.80;;;;;;5052627;28;20331;-70
2023/06/20 06:46:17;;;;;;;14.45;9.30;;;22.20;99.80;;;;;;5052895;28;20051;-72
2023/06/20 06:48:43;;;;;;;17.08;10.02;;;22.30;99.80;;;;;;5052080;28;20052;-70
2023/06/20 06:51:08;;;;;;;16.08;10.38;;;22.30;99.80;;;;;;5052740;28;20034;-72
2023/06/20 06:53:34;;;;;;;14.50;10.70;;;22.30;99.60;;;;;;5052632;28;20037;-71
2023/06/20 06:55:59;;;;;;;13.85;8.98;;;22.20;99.60;;;;;;5052467;28;20040;-70
2023/06/20 06:58:25;;;;;;;11.98;8.70;;;22.30;99.50;;;;;;5053292;28;20087;-70
2023/06/20 07:00:51;;;;;;;17.67;8.88;;;22.40;99.50;;;;;;5035709;28;20128;-69
2023/06/20 07:03:17;;;;;;;16.45;8.93;;;22.40;99.50;;;;;;5032659;28;20053;-71
2023/06/20 07:05:43;;;;;;;14.65;8.52;;;22.40;99.40;;;;;;5032465;28;20508;-71
2023/06/20 07:08:08;;;;;;;12.95;8.52;;;22.40;99.50;;;;;;5031248;28;20030;-70
2023/06/20 07:10:34;;;;;;;10.73;7.43;;;22.40;99.80;;;;;;5032315;28;20037;-71
2023/06/20 07:13:00;;;;;;;9.98;7.63;;;22.40;99.30;;;;;;5032588;28;20087;-70
2023/06/20 07:15:27;;;;;;;11.93;7.28;;;22.40;99.50;;;;;;5031586;28;20365;-70
2023/06/20 07:17:52;;;;;;;9.05;7.18;;;22.30;99.50;;;;;;5032443;28;20029;-70
2023/06/20 07:20:18;;;;;;;11.90;6.60;;;22.40;99.60;;;;;;5032146;28;20412;-72
2023/06/20 07:22:45;;;;;;;14.77;6.75;;;22.50;99.20;;;;;;5032514;28;20052;-70
2023/06/20 07:25:11;;;;;;;12.90;6.93;;;22.40;99.60;;;;;;5032493;28;20028;-69
2023/06/20 07:27:37;;;;;;;8.80;6.93;;;22.50;99.60;;;;;;5032242;28;20080;-68
2023/06/20 07:30:03;;;;;;;11.63;6.95;;;22.50;99.40;;;;;;5032037;28;20030;-68
2023/06/20 07:32:29;;;;;;;8.13;6.18;;;22.50;99.40;;;;;;5031805;28;20132;-68
2023/06/20 07:34:55;;;;;;;11.50;7.40;;;22.50;99.30;;;;;;5030851;28;20120;-71
2023/06/20 07:37:20;;;;;;;7.22;5.45;;;22.50;99.50;;;;;;5032475;28;20095;-68
2023/06/20 07:39:47;;;;;;;13.52;5.68;;;22.60;99.10;;;;;;5031608;28;20026;-69
2023/06/20 07:42:14;;;;;;;7.43;5.50;;;22.60;98.90;;;;;;5030642;28;20113;-71
2023/06/20 07:44:39;;;;;;;8.73;5.45;;;22.60;98.90;;;;;;5032137;28;20371;-70
2023/06/20 07:47:06;;;;;;;10.25;6.00;;;22.60;98.90;;;;;;5031766;28;20460;-70
2023/06/20 07:49:31;;;;;;;11.52;6.25;;;22.70;99.00;;;;;;5032069;28;20033;-73
2023/06/20 07:51:57;;;;;;;10.13;5.35;;;22.60;98.90;;;;;;5030602;28;20044;-71
2023/06/20 07:54:23;;;;;;;9.65;5.10;;;22.70;99.10;;;;;;5031421;28;20034;-70
2023/06/20 07:56:49;;;;;;;7.65;4.95;;;22.70;99.00;;;;;;5030923;28;20044;-72
2023/06/20 07:59:14;;;;;;;7.75;4.85;;;22.70;98.90;;;;;;5031697;28;20025;-72
2023/06/20 08:01:40;;;;;;;5.68;4.88;;;22.70;99.20;;;;;;5031530;28;20022;-73
2023/06/20 08:04:06;;;;;;;11.05;6.10;;;22.60;99.30;;;;;;5031922;28;20317;-74
2023/06/20 08:06:31;;;;;;;5.50;4.63;;;22.80;99.30;;;;;;5030345;28;20105;-72
2023/06/20 08:08:58;;;;;;;5.80;4.78;;;22.80;99.20;;;;;;5031259;28;20087;-70
2023/06/20 08:11:24;;;;;;;5.85;4.78;;;22.90;99.20;;;;;;5030162;28;20033;-72
2023/06/20 08:13:49;;;;;;;6.20;4.60;;;23.00;99.30;;;;;;5031125;28;20044;-71
2023/06/20 08:16:15;;;;;;;7.05;4.60;;;23.00;99.70;;;;;;5031744;28;20022;-73
2023/06/20 08:18:41;;;;;;;8.02;5.25;;;23.00;99.40;;;;;;5031198;28;20030;-72
2023/06/20 08:21:07;;;;;;;8.32;5.07;;;23.00;99.50;;;;;;5030958;28;20463;-72
2023/06/20 08:23:33;;;;;;;6.78;5.18;;;23.10;99.60;;;;;;5030724;28;20475;-73
2023/06/20 08:25:59;;;;;;;26.02;6.15;;;23.10;99.40;;;;;;5031263;28;20107;-71
2023/06/20 08:28:25;;;;;;;10.65;5.22;;;23.20;99.40;;;;;;5030149;28;20033;-73
2023/06/20 08:30:51;;;;;;;12.23;6.88;;;23.20;99.20;;;;;;5031188;28;20482;-73
2023/06/20 08:33:17;;;;;;;17.92;7.43;;;23.30;99.20;;;;;;5030690;28;20353;-73
2023/06/20 08:35:43;;;;;;;11.00;5.90;;;23.40;99.10;;;;;;5030784;28;20037;-70
2023/06/20 08:38:12;;;;;;;16.65;5.65;;;23.40;99.10;;;;;;5031388;28;20064;-70
2023/06/20 08:40:38;;;;;;;11.88;5.75;;;23.40;99.10;;;;;;5032441;28;20033;-71
2023/06/20 08:43:05;;;;;;;8.70;5.70;;;23.40;99.00;;;;;;5032353;28;20028;-77
2023/06/20 08:45:30;;;;;;;8.18;6.50;;;23.40;99.00;;;;;;5031119;28;20030;-70
2023/06/20 08:47:58;;;;;;;14.63;6.88;;;23.40;98.80;;;;;;5029997;28;20022;-71
2023/06/20 08:50:27;;;;;;;10.45;5.50;;;23.40;99.00;;;;;;5030717;28;20096;-71
2023/06/20 08:52:54;;;;;;;10.10;5.57;;;23.50;98.90;;;;;;5030218;28;20049;-69
2023/06/20 08:55:21;;;;;;;15.23;6.82;;;23.50;98.90;;;;;;5029710;28;20207;-71
2023/06/20 08:57:47;;;;;;;8.95;6.88;;;23.50;99.00;;;;;;5030501;28;20051;-71
2023/06/20 09:00:20;;;;;;;12.93;6.35;;;23.50;99.00;;;;;;5029522;28;20468;-70
2023/06/20 09:02:50;;;;;;;9.68;6.65;;;23.60;99.00;;;;;;5029181;28;20044;-70
2023/06/20 09:05:17;;;;;;;10.23;6.72;;;23.50;99.30;;;;;;5030416;28;20025;-71
2023/06/20 09:07:43;;;;;;;13.73;7.15;;;23.60;99.20;;;;;;5029144;28;20087;-74
2023/06/20 09:10:12;;;;;;;10.80;7.75;;;23.70;99.10;;;;;;5030507;28;20036;-74
2023/06/20 09:12:58;;;;;;;17.70;8.45;;;23.80;99.00;;;;;;5029200;28;20034;-73
2023/06/20 09:15:26;;;;;;;12.18;8.32;;;23.80;99.10;;;;;;5029696;28;20388;-73
2023/06/20 09:17:51;;;;;;;17.38;8.88;;;23.90;99.00;;;;;;5030111;28;20439;-73
2023/06/20 09:20:17;;;;;;;15.63;8.15;;;23.90;99.00;;;;;;5029137;28;20112;-73
2023/06/20 09:22:43;;;;;;;13.60;9.27;;;23.90;98.90;;;;;;5028696;28;20090;-73
2023/06/20 09:25:10;;;;;;;14.00;8.75;;;23.80;99.20;;;;;;5029783;28;20031;-73
2023/06/20 09:27:37;;;;;;;11.73;8.10;;;23.80;99.30;;;;;;5030406;28;20038;-72
2023/06/20 09:30:04;;;;;;;10.43;7.80;;;23.80;99.20;;;;;;5030280;28;20448;-72
2023/06/20 09:32:39;;;;;;;16.90;8.30;;;23.80;99.30;;;;;;5029848;28;20045;-74
2023/06/20 09:35:06;;;;;;;10.15;7.90;;;23.90;99.20;;;;;;5030258;28;20110;-73
2023/06/20 09:37:45;;;;;;;7.93;6.90;;;24.00;99.10;;;;;;5030567;28;20121;-73
2023/06/20 09:40:15;;;;;;;11.82;8.35;;;24.00;99.10;;;;;;5050441;28;20033;-71
2023/06/20 09:42:43;;;;;;;11.50;7.25;;;24.10;98.90;;;;;;5049980;28;20037;-70
2023/06/20 09:45:11;;;;;;;10.57;6.93;;;24.10;98.80;;;;;;5036810;28;20077;-71
2023/06/20 09:47:38;;;;;;;12.80;6.18;;;24.20;98.80;;;;;;5029981;28;20371;-71
2023/06/20 09:50:09;;;;;;;12.38;6.65;;;24.30;98.70;;;;;;5030287;28;20427;-72
2023/06/20 09:52:43;;;;;;;10.75;6.35;;;24.30;98.50;;;;;;5030064;28;20482;-71
2023/06/20 09:55:11;;;;;;;9.73;7.05;;;24.40;98.40;;;;;;5029822;28;20121;-72
2023/06/20 09:58:04;;;;;;;9.27;5.95;;;24.40;98.20;;;;;;5029975;28;20053;-71
2023/06/20 10:00:31;;;;;;;8.40;6.13;;;24.40;98.00;;;;;;5027394;28;20120;-70
2023/06/20 10:03:04;;;;;;;7.20;6.03;;;24.40;98.10;;;;;;5030315;28;20424;-71
2023/06/20 10:05:33;;;;;;;10.20;6.25;;;24.50;98.10;;;;;;5029881;28;20045;-69
2023/06/20 10:07:59;;;;;;;8.30;5.32;;;24.60;97.90;;;;;;5029850;28;20038;-69
2023/06/20 10:10:25;;;;;;;11.55;6.05;;;24.70;97.90;;;;;;5030165;28;20029;-69
2023/06/20 10:12:51;;;;;;;7.00;6.00;;;24.90;97.70;;;;;;5028478;28;20040;-71
2023/06/20 10:15:17;;;;;;;10.00;5.70;;;25.20;97.60;;;;;;5029958;28;20371;-70
2023/06/20 10:17:47;;;;;;;7.82;5.57;;;25.50;97.50;;;;;;5029784;28;20384;-70
2023/06/20 10:20:34;;;;;;;7.45;5.35;;;25.70;96.70;;;;;;5031573;28;20079;-70
2023/06/20 10:23:05;;;;;;;7.18;5.85;;;26.00;95.90;;;;;;5032037;28;20084;-71
2023/06/20 10:25:32;;;;;;;7.75;5.82;;;26.30;95.60;;;;;;5033588;28;20021;-70
2023/06/20 10:28:02;;;;;;;6.90;5.55;;;26.50;94.90;;;;;;5033168;28;20064;-70
2023/06/20 10:30:46;;;;;;;6.65;5.20;;;26.60;94.30;;;;;;5032928;28;20040;-70
2023/06/20 10:33:13;;;;;;;7.85;5.32;;;26.70;94.60;;;;;;5032592;28;20103;-72
2023/06/20 10:35:49;;;;;;;7.07;5.47;;;26.80;94.20;;;;;;5033116;28;20057;-71
2023/06/20 10:38:15;;;;;;;8.15;5.10;;;26.80;94.30;;;;;;5032955;28;20662;-71
2023/06/20 10:40:40;;;;;;;6.93;5.72;;;27.00;94.60;;;;;;5032535;28;20053;-69
2023/06/20 10:43:16;;;;;;;7.93;5.32;;;27.40;94.20;;;;;;5033327;28;20040;-70
2023/06/20 10:45:53;;;;;;;7.45;5.75;;;27.60;93.70;;;;;;5031753;28;20525;-70
2023/06/20 10:48:20;;;;;;;7.70;4.85;;;27.70;93.30;;;;;;5032658;28;20037;-69
2023/06/20 10:50:46;;;;;;;7.20;5.78;;;27.90;93.10;;;;;;5032628;28;20034;-70
2023/06/20 10:53:14;;;;;;;8.10;5.18;;;28.00;92.90;;;;;;5032628;28;20396;-69
2023/06/20 10:55:39;;;;;;;7.75;5.28;;;28.20;92.60;;;;;;5031744;28;20407;-69
2023/06/20 10:58:05;;;;;;;6.95;5.70;;;28.20;92.30;;;;;;5033204;28;20094;-68
2023/06/20 11:00:31;;;;;;;8.75;5.57;;;28.00;92.20;;;;;;5032622;28;20076;-69
2023/06/20 11:02:57;;;;;;;7.35;5.40;;;28.00;92.50;;;;;;5032574;28;20115;-70
2023/06/20 11:05:26;;;;;;;5.30;4.80;;;28.20;92.50;;;;;;5032465;28;20033;-70
2023/06/20 11:07:56;;;;;;;7.18;5.43;;;28.30;92.20;;;;;;5032482;28;20040;-69
2023/06/20 11:10:35;;;;;;;9.10;5.72;;;28.50;91.90;;;;;;5033054;28;20017;-70
2023/06/20 11:13:03;;;;;;;8.52;5.45;;;28.60;91.50;;;;;;5032537;28;20029;-70
2023/06/20 11:15:36;;;;;;;8.57;5.28;;;28.60;91.70;;;;;;5032591;28;20029;-69
2023/06/20 11:18:08;;;;;;;7.63;6.03;;;28.60;91.50;;;;;;5032411;28;20033;-69
2023/06/20 11:20:37;;;;;;;5.85;4.90;;;28.40;91.20;;;;;;5032337;28;20489;-69
2023/06/20 11:23:04;;;;;;;7.50;5.28;;;28.30;91.60;;;;;;5031221;28;20048;-69
2023/06/20 11:25:32;;;;;;;9.10;5.57;;;28.30;92.00;;;;;;5032657;28;20021;-70
2023/06/20 11:28:08;;;;;;;7.90;5.60;;;28.30;92.00;;;;;;5032381;28;20460;-70
2023/06/20 11:30:37;;;;;;;7.33;6.53;;;28.40;91.90;;;;;;5031797;28;20547;-69
2023/06/20 11:33:12;;;;;;;8.38;5.57;;;28.50;91.80;;;;;;5031478;28;20053;-70
2023/06/20 11:35:42;;;;;;;7.03;6.28;;;28.50;91.70;;;;;;5032189;28;20233;-69
2023/06/20 11:38:15;;;;;;;11.05;6.20;;;28.50;91.60;;;;;;5032076;28;20109;-69
2023/06/20 11:40:42;;;;;;;6.72;5.75;;;28.60;91.70;;;;;;5032437;28;20032;-70
2023/06/20 11:43:19;;;;;;;7.60;6.05;;;28.50;91.70;;;;;;5031653;28;20411;-70
2023/06/20 11:45:44;;;;;;;7.53;6.28;;;28.60;91.40;;;;;;5032112;28;20030;-71
2023/06/20 11:48:12;;;;;;;8.27;6.70;;;28.70;91.30;;;;;;5032271;28;20171;-70
2023/06/20 11:50:41;;;;;;;;;;;28.80;91.30;;;;;;5032467;28;20033;-70
2023/06/20 11:53:20;;;;;;;11.95;6.25;;;28.70;91.00;;;;;;5032128;28;19909;-70
2023/06/20 11:55:54;;;;;;;7.05;6.35;;;28.70;91.20;;;;;;5031792;28;20022;-70
2023/06/20 11:58:20;;;;;;;9.77;6.75;;;28.90;91.10;;;;;;5032377;28;20596;-72
2023/06/20 12:00:57;;;;;;;8.70;6.95;;;29.10;90.60;;;;;;5032341;28;20036;-70
2023/06/20 12:03:23;;;;;;;10.50;7.45;;;29.00;90.40;;;;;;5032049;28;20029;-72
2023/06/20 12:05:48;;;;;;;11.23;8.13;;;28.90;90.60;;;;;;5032217;28;20044;-71
2023/06/20 12:08:14;;;;;;;10.95;8.82;;;28.80;90.90;;;;;;5031390;28;20459;-71
2023/06/20 12:10:46;;;;;;;10.35;9.25;;;28.80;91.00;;;;;;5031835;28;20108;-70
2023/06/20 12:13:11;;;;;;;10.80;9.70;;;28.70;90.80;;;;;;5032065;28;20025;-69
2023/06/20 12:15:37;;;;;;;14.63;9.43;;;28.70;90.90;;;;;;5031503;28;20100;-70
2023/06/20 12:18:03;;;;;;;10.00;8.07;;;28.70;91.10;;;;;;5031376;28;20108;-70
2023/06/20 12:20:28;;;;;;;8.77;7.88;;;28.70;91.10;;;;;;5033020;28;20033;-71
2023/06/20 12:22:54;;;;;;;10.55;9.48;;;28.90;90.90;;;;;;5031397;28;20033;-70
2023/06/20 12:25:20;;;;;;;9.90;8.85;;;28.90;90.80;;;;;;5033135;28;20037;-70
2023/06/20 12:27:45;;;;;;;9.18;7.95;;;29.00;90.80;;;;;;5031317;28;20033;-70
2023/06/20 12:30:11;;;;;;;8.82;7.78;;;28.90;90.40;;;;;;5031711;28;20033;-70
2023/06/20 12:32:37;;;;;;;7.97;7.18;;;29.00;90.60;;;;;;5031686;28;20041;-71
2023/06/20 12:35:03;;;;;;;5.63;4.95;;;29.10;90.40;;;;;;5030340;28;20518;-71
2023/06/20 12:37:28;;;;;;;5.72;5.15;;;29.00;89.40;;;;;;5032272;28;20082;-70
2023/06/20 12:39:54;;;;;;;6.70;5.32;;;29.00;89.00;;;;;;5030429;28;20052;-70
2023/06/20 12:42:20;;;;;;;6.32;5.30;;;28.90;89.40;;;;;;5031377;28;20038;-73